Back to Top

Current Local METAR Station Weather Reports...

Local METAR Reports

Local METAR Reports

 

EGCN - Doncaster Sheffield Airport, United Kingdom
Distance from station: E 20mi, 32km
Updated: Tue, 23-Apr-2019 3:20am BST
Haze, Clear
Haze, Clear
 Wind from NNW
Wind: NNW 5 mph , 7 km/h
Temperature: 8°C
Wind Chill: 7°C
Dew Point: 6°C
Humidity: 87%
Barometer: 1002 hPa
Summary: Haze
Clouds: Clear
Visibility: 3 miles , 5 km
2019/04/23 02:20 EGCN 230220Z AUTO 34004KT 4500 HZ NCD 08/06 Q1002
EGNM - Leeds Bradford International, United Kingdom
Distance from station: NNW 24mi, 39km
Updated: Tue, 23-Apr-2019 3:20am BST
Clear
Clear
 Wind from NNE
Wind: NNE 6 mph , 9 km/h
Temperature: 9°C
Wind Chill: 7°C
Dew Point: 6°C
Humidity: 82%
Barometer: 1002 hPa
Summary: Clear
Visibility: greater than 7 miles , 10 km
2019/04/23 02:20 EGNM 230220Z 03005KT CAVOK 09/06 Q1002
 
EGCC - Manchester International, United Kingdom
Distance from station: WSW 35mi, 56km
Updated: Tue, 23-Apr-2019 3:20am BST
Clear
Clear
 Wind from varies
Wind: varies 1 mph , 2 km/h
Temperature: 13°C
Dew Point: 6°C
Humidity: 63%
Barometer: 1001 hPa
Clouds: Clear
Visibility: 6 miles , 10 km
2019/04/23 02:20 EGCC 230220Z AUTO VRB01KT 9999 NCD 13/06 Q1001 NOSIG
EGXU - Linton-On-Ouse RAF, United Kingdom
Distance from station: NNE 37mi, 60km
Updated: Tue, 23-Apr-2019 2:50am BST
Few Clouds
Few Clouds
 Wind from NNW
Wind: NNW 5 mph , 7 km/h
Temperature: 8°C
Wind Chill: 7°C
Dew Point: 6°C
Humidity: 87%
Barometer: 1002 hPa
Clouds: Few Clouds
Visibility: 2 miles , 4 km
Cloud details: Few Clouds 4267 m
2019/04/23 01:50 EGXU 230150Z AUTO 33004KT 3600 // FEW140/// 08/06 Q1002
 
EGXP - Scampton RAF, United Kingdom
Distance from station: ESE 41mi, 66km
Updated: Tue, 23-Apr-2019 2:50am BST
Clear
Clear
 Wind from E
Wind: E 7 mph , 11 km/h
Temperature: 10°C
Wind Chill: 8°C
Dew Point: 6°C
Humidity: 76%
Barometer: 1001 hPa
Clouds: Clear
Visibility: 6 miles , 10 km
2019/04/23 01:50 EGXP 230150Z AUTO 08006KT 9999 // NCD 10/06 Q1001
EGNJ - Humberside Airport, United Kingdom
Distance from station: E 46mi, 74km
Updated: Tue, 23-Apr-2019 3:20am BST
Clear
Clear
 Wind from N
Wind: N 5 mph , 7 km/h
Temperature: 10°C
Wind Chill: 9°C
Dew Point: 8°C
Humidity: 88%
Barometer: 1002 hPa
Clouds: Clear
Visibility: 6 miles , 10 km
2019/04/23 02:20 EGNJ 230220Z AUTO 01004KT 9999 NCD 10/08 Q1002
 
EGXW - Waddington RAF, United Kingdom
Distance from station: ESE 46mi, 74km
Updated: Tue, 23-Apr-2019 2:50am BST
Haze, Partly cloudy
Haze, Partly cloudy
 Wind from E
Wind: E 8 mph , 13 km/h
Temperature: 10°C
Wind Chill: 8°C
Dew Point: 6°C
Humidity: 76%
Barometer: 1001 hPa
Summary: Haze
Clouds: Partly Cloudy
Visibility: 6 miles , 9 km
Cloud details: Partly Cloudy 7620 m
2019/04/23 01:50 EGXW 230150Z 09007KT 9000 HZ SCT250 10/06 Q1001 BLU
EGXZ - Topcliffe RAF, United Kingdom
Distance from station: N 46mi, 75km
Updated: Tue, 23-Apr-2019 2:50am BST
Haze, Partly cloudy
Haze, Partly cloudy
 Wind from NNW
Wind: NNW 5 mph , 7 km/h
Temperature: 8°C
Wind Chill: 7°C
Dew Point: 6°C
Humidity: 87%
Barometer: 1003 hPa
Summary: Haze
Clouds: Partly Cloudy
Visibility: 3 miles , 5 km
Cloud details: Partly Cloudy 4877 m
2019/04/23 01:50 EGXZ 230150Z AUTO 33004KT 5000 HZ SCT160/// 08/06 Q1003
 
EGXV - Leconfield, United Kingdom
Distance from station: ENE 48mi, 77km
Updated: Tue, 23-Apr-2019 2:50am BST
Haze, Clear
Haze, Clear
 Wind from NE
Wind: NE 3 mph , 6 km/h
Temperature: 7°C
Dew Point: 6°C
Humidity: 93%
Barometer: 1002 hPa
Summary: Haze
Clouds: Clear
Visibility: 6 miles , 9 km
2019/04/23 01:50 EGXV 230150Z AUTO 04003KT 9000 HZ NCD 07/06 Q1002
EGNX - East Midlands, United Kingdom
Distance from station: S 50mi, 80km
Updated: Tue, 23-Apr-2019 3:20am BST
Clear
Clear
 Wind from NE
Wind: NE 5 mph , 7 km/h
Temperature: 11°C
Dew Point: 7°C
Humidity: 77%
Barometer: 1001 hPa
Summary: Clear
Visibility: greater than 7 miles , 10 km
2019/04/23 02:20 EGNX 230220Z 04004KT CAVOK 11/07 Q1001

Metar display script from Saratoga-Weather.org

Data updates at regular intervals.